createdAt,value
2023-04-15T00:00:46.857Z,9.3
2023-04-15T00:01:54.510Z,9.3
2023-04-15T00:03:01.558Z,9.3
2023-04-15T00:04:11.424Z,9.4
2023-04-15T00:05:19.209Z,9.4
2023-04-15T00:06:27.284Z,9.3
2023-04-15T00:07:34.243Z,9.4
2023-04-15T00:08:44.319Z,9.4
2023-04-15T00:09:51.336Z,9.3
2023-04-15T00:10:58.242Z,9.4
2023-04-15T00:12:06.165Z,9.4
2023-04-15T00:13:13.106Z,9.5
2023-04-15T00:14:20.156Z,9.4
2023-04-15T00:15:27.168Z,9.5
2023-04-15T00:16:34.204Z,9.6
2023-04-15T00:17:41.195Z,9.5
2023-04-15T00:18:48.972Z,9.6
2023-04-15T00:19:55.966Z,9.5
2023-04-15T00:21:02.967Z,9.6
2023-04-15T00:22:09.885Z,9.5
2023-04-15T00:23:17.005Z,9.4
2023-04-15T00:24:23.932Z,9.5
2023-04-15T00:25:30.898Z,9.5
2023-04-15T00:26:39.016Z,9.4
2023-04-15T00:27:47.069Z,9.5
2023-04-15T00:28:54.010Z,9.5
2023-04-15T00:30:00.979Z,9.5
2023-04-15T00:31:08.249Z,9.5
2023-04-15T00:32:17.734Z,9.5
2023-04-15T00:33:24.655Z,9.5
2023-04-15T00:34:31.657Z,9.4
2023-04-15T00:35:38.644Z,9.5
2023-04-15T00:36:45.616Z,9.5
2023-04-15T00:37:55.372Z,9.5
2023-04-15T00:39:03.093Z,9.4
2023-04-15T00:40:09.992Z,9.5
2023-04-15T00:41:19.902Z,9.5
2023-04-15T00:42:26.781Z,9.5
2023-04-15T00:43:33.740Z,9.4
2023-04-15T00:44:40.805Z,9.4
2023-04-15T00:45:52.857Z,9.3
2023-04-15T00:47:02.788Z,9
2023-04-15T00:48:12.717Z,9.1
2023-04-15T00:49:20.489Z,9.2
2023-04-15T00:50:27.514Z,9.1
2023-04-15T00:51:34.472Z,9.2
2023-04-15T00:52:41.460Z,9.3
2023-04-15T00:53:48.366Z,9.1
2023-04-15T00:54:55.422Z,9.3
2023-04-15T00:56:02.410Z,9.3
2023-04-15T00:57:09.611Z,9.4
2023-04-15T00:58:19.367Z,9.4
2023-04-15T00:59:27.884Z,9.3
2023-04-15T01:00:34.801Z,9.4
2023-04-15T01:01:41.930Z,9.2
2023-04-15T01:02:49.105Z,9.3
2023-04-15T01:03:56.212Z,9.4
2023-04-15T01:05:08.146Z,9.4
2023-04-15T01:06:15.183Z,9.4
2023-04-15T01:07:22.125Z,9.4
2023-04-15T01:08:29.039Z,9.4
2023-04-15T01:09:36.020Z,9.4
2023-04-15T01:10:43.050Z,9.4
2023-04-15T01:11:49.953Z,9.3
2023-04-15T01:12:56.983Z,9.4
2023-04-15T01:14:04.220Z,9.4
2023-04-15T01:15:11.218Z,9.4
2023-04-15T01:16:18.300Z,9.4
2023-04-15T01:17:25.225Z,9.3
2023-04-15T01:18:32.216Z,9.3
2023-04-15T01:19:39.123Z,9.3
2023-04-15T01:20:46.056Z,9.3
2023-04-15T01:21:58.333Z,9.3
2023-04-15T01:23:05.239Z,9.3
2023-04-15T01:24:12.283Z,9.3
2023-04-15T01:25:19.220Z,9.3
2023-04-15T01:26:32.319Z,9.2
2023-04-15T01:27:42.216Z,9.2
2023-04-15T01:28:51.732Z,9.1
2023-04-15T01:29:59.743Z,8.9
2023-04-15T01:31:06.819Z,9
2023-04-15T01:32:13.739Z,8.8
2023-04-15T01:33:20.711Z,8.9
2023-04-15T01:34:30.126Z,8.8
2023-04-15T01:35:37.055Z,8.9
2023-04-15T01:36:44.048Z,8.9
2023-04-15T01:37:51.019Z,8.9
2023-04-15T01:38:58.166Z,8.7
2023-04-15T01:40:04.995Z,8.9
2023-04-15T01:41:15.005Z,9
2023-04-15T01:42:21.936Z,9
2023-04-15T01:43:29.010Z,9
2023-04-15T01:44:35.991Z,9
2023-04-15T01:45:42.893Z,8.9
2023-04-15T01:46:50.032Z,8.8
2023-04-15T01:47:57.003Z,8.8
2023-04-15T01:49:04.103Z,8.7
2023-04-15T01:50:11.012Z,8.8
2023-04-15T01:51:18.013Z,8.8
2023-04-15T01:52:26.335Z,8.9
2023-04-15T01:53:33.402Z,9
2023-04-15T01:54:40.521Z,8.9
2023-04-15T01:55:47.635Z,8.8
2023-04-15T01:56:54.576Z,8.9
2023-04-15T01:58:01.452Z,8.9
2023-04-15T01:59:08.393Z,8.9
2023-04-15T02:00:15.392Z,8.9
2023-04-15T02:01:22.441Z,8.9
2023-04-15T02:02:32.259Z,8.8
2023-04-15T02:03:39.230Z,8.8
2023-04-15T02:04:48.933Z,8.6
2023-04-15T02:05:58.331Z,8.5
2023-04-15T02:07:05.579Z,8.3
2023-04-15T02:08:12.449Z,8.2
2023-04-15T02:09:22.147Z,8.2
2023-04-15T02:10:29.906Z,8.2
2023-04-15T02:11:36.883Z,8.2
2023-04-15T02:12:43.821Z,8.1
2023-04-15T02:13:50.733Z,8.1
2023-04-15T02:14:57.697Z,8.1
2023-04-15T02:16:04.673Z,7.9
2023-04-15T02:17:19.528Z,8.1
2023-04-15T02:18:26.495Z,8.3
2023-04-15T02:19:33.384Z,8.3
2023-04-15T02:20:40.325Z,8.4
2023-04-15T02:21:48.068Z,8.4
2023-04-15T02:22:55.031Z,8.4
2023-04-15T02:24:02.100Z,8.5
2023-04-15T02:25:09.184Z,8.5
2023-04-15T02:26:16.162Z,8.5
2023-04-15T02:27:26.046Z,8.4
2023-04-15T02:28:33.103Z,8.4
2023-04-15T02:29:40.174Z,8.5
2023-04-15T02:30:50.028Z,8.5
2023-04-15T02:31:57.029Z,8.5
2023-04-15T02:33:03.902Z,8.5
2023-04-15T02:34:12.423Z,8.4
2023-04-15T02:35:20.054Z,8.4
2023-04-15T02:36:27.080Z,8.4
2023-04-15T02:37:34.935Z,8.4
2023-04-15T02:38:44.640Z,8.3
2023-04-15T02:39:52.523Z,8.3
2023-04-15T02:40:59.416Z,8.3
2023-04-15T02:42:06.299Z,8.1
2023-04-15T02:43:13.265Z,8
2023-04-15T02:44:20.171Z,7.9
2023-04-15T02:45:27.162Z,8
2023-04-15T02:46:34.140Z,8
2023-04-15T02:47:43.373Z,7.8
2023-04-15T02:48:50.247Z,7.8
2023-04-15T02:49:59.967Z,7.8
2023-04-15T02:51:10.075Z,7.8
2023-04-15T02:52:19.930Z,7.9
2023-04-15T02:53:26.864Z,8
2023-04-15T02:54:36.754Z,8
2023-04-15T02:55:43.707Z,8
2023-04-15T02:56:53.521Z,7.9
2023-04-15T02:58:00.416Z,8
2023-04-15T02:59:07.542Z,7.9
2023-04-15T03:00:14.493Z,8
2023-04-15T03:01:21.467Z,8
2023-04-15T03:02:28.574Z,8
2023-04-15T03:03:41.206Z,8
2023-04-15T03:04:48.180Z,8
2023-04-15T03:05:55.209Z,8
2023-04-15T03:07:02.262Z,7.9
2023-04-15T03:08:09.271Z,8
2023-04-15T03:09:16.171Z,8
2023-04-15T03:10:23.114Z,8
2023-04-15T03:11:30.137Z,7.8
2023-04-15T03:12:37.786Z,7.9
2023-04-15T03:13:44.805Z,7.9
2023-04-15T03:14:51.749Z,7.8
2023-04-15T03:15:58.816Z,7.7
2023-04-15T03:17:09.092Z,7.7
2023-04-15T03:18:16.126Z,7.8
2023-04-15T03:19:23.107Z,7.8
2023-04-15T03:20:30.233Z,7.9
2023-04-15T03:21:37.218Z,7.9
2023-04-15T03:22:44.282Z,8
2023-04-15T03:23:52.126Z,8
2023-04-15T03:25:01.972Z,7.9
2023-04-15T03:26:16.563Z,7.9
2023-04-15T03:27:31.270Z,7.9
2023-04-15T03:28:39.034Z,7.9
2023-04-15T03:29:46.011Z,7.9
2023-04-15T03:30:52.915Z,7.9
2023-04-15T03:32:03.706Z,7.9
2023-04-15T03:33:10.667Z,7.9
2023-04-15T03:34:17.642Z,7.9
2023-04-15T03:35:24.569Z,7.9
2023-04-15T03:36:31.600Z,7.8
2023-04-15T03:37:38.553Z,7.8
2023-04-15T03:38:45.540Z,7.8
2023-04-15T03:39:52.447Z,7.8
2023-04-15T03:40:59.441Z,7.8
2023-04-15T03:42:06.391Z,7.8
2023-04-15T03:43:13.491Z,7.8
2023-04-15T03:44:20.468Z,7.7
2023-04-15T03:45:27.404Z,7.7
2023-04-15T03:46:35.449Z,7.7
2023-04-15T03:47:45.950Z,7.7
2023-04-15T03:48:54.165Z,7.6
2023-04-15T03:50:04.940Z,7.6
2023-04-15T03:51:15.458Z,7.6
2023-04-15T03:52:22.415Z,7.5
2023-04-15T03:53:32.422Z,7.5
2023-04-15T03:54:39.332Z,7.5
2023-04-15T03:55:46.319Z,7.5
2023-04-15T03:56:54.885Z,7.5
2023-04-15T03:58:01.777Z,7.4
2023-04-15T03:59:08.772Z,7.4
2023-04-15T04:00:15.709Z,7.5
2023-04-15T04:01:25.776Z,7.4
2023-04-15T04:02:32.805Z,7.4
2023-04-15T04:03:39.824Z,7.4
2023-04-15T04:04:46.596Z,7.4
2023-04-15T04:05:55.996Z,7.4
2023-04-15T04:07:03.744Z,7.4
2023-04-15T04:08:10.672Z,7.4
2023-04-15T04:09:17.588Z,7.4
2023-04-15T04:10:24.559Z,7.4
2023-04-15T04:11:31.524Z,7.4
2023-04-15T04:12:38.592Z,7.4
2023-04-15T04:13:46.811Z,7.4
2023-04-15T04:14:54.190Z,7.4
2023-04-15T04:16:01.916Z,7.3
2023-04-15T04:17:08.896Z,7.3
2023-04-15T04:18:15.819Z,7.3
2023-04-15T04:19:22.948Z,7.3
2023-04-15T04:20:29.840Z,7.3
2023-04-15T04:21:36.781Z,7.3
2023-04-15T04:22:43.726Z,7.3
2023-04-15T04:23:50.680Z,7.3
2023-04-15T04:24:57.595Z,7.3
2023-04-15T04:26:06.557Z,7.3
2023-04-15T04:27:13.576Z,7.2
2023-04-15T04:28:20.923Z,7.3
2023-04-15T04:29:27.797Z,7.3
2023-04-15T04:30:34.690Z,7.3
2023-04-15T04:31:41.736Z,7.3
2023-04-15T04:32:48.656Z,7.3
2023-04-15T04:33:56.658Z,7.4
2023-04-15T04:35:03.604Z,7.4
2023-04-15T04:36:12.745Z,7.4
2023-04-15T04:37:19.648Z,7.5
2023-04-15T04:38:27.515Z,7.5
2023-04-15T04:39:34.576Z,7.5
2023-04-15T04:40:41.588Z,7.5
2023-04-15T04:41:48.600Z,7.5
2023-04-15T04:42:58.140Z,7.5
2023-04-15T04:44:05.105Z,7.5
2023-04-15T04:45:12.096Z,7.5
2023-04-15T04:46:19.120Z,7.5
2023-04-15T04:47:26.153Z,7.5
2023-04-15T04:48:33.112Z,7.5
2023-04-15T04:49:45.140Z,7.5
2023-04-15T04:50:52.947Z,7.6
2023-04-15T04:52:01.007Z,7.6
2023-04-15T04:53:07.946Z,7.6
2023-04-15T04:54:14.917Z,7.6
2023-04-15T04:55:22.788Z,7.6
2023-04-15T04:56:32.630Z,7.7
2023-04-15T04:57:39.569Z,7.7
2023-04-15T04:58:46.604Z,7.7
2023-04-15T04:59:53.583Z,7.7
2023-04-15T05:01:07.909Z,7.5
2023-04-15T05:02:15.136Z,7.4
2023-04-15T05:03:23.116Z,7.4
2023-04-15T05:04:30.016Z,7.4
2023-04-15T05:05:36.922Z,7.6
2023-04-15T05:06:44.915Z,7.7
2023-04-15T05:07:55.910Z,7.8
2023-04-15T05:09:03.385Z,7.8
2023-04-15T05:10:10.142Z,7.8
2023-04-15T05:11:17.427Z,7.9
2023-04-15T05:12:24.376Z,7.9
2023-04-15T05:13:31.314Z,7.9
2023-04-15T05:14:40.989Z,7.9
2023-04-15T05:15:48.232Z,8
2023-04-15T05:16:55.094Z,8
2023-04-15T05:18:02.233Z,8
2023-04-15T05:19:12.784Z,8
2023-04-15T05:20:19.741Z,8
2023-04-15T05:21:27.615Z,8
2023-04-15T05:22:34.584Z,8
2023-04-15T05:23:41.681Z,8.1
2023-04-15T05:24:48.647Z,8.1
2023-04-15T05:25:56.672Z,8.1
2023-04-15T05:27:03.653Z,8.1
2023-04-15T05:28:10.569Z,8.1
2023-04-15T05:29:20.570Z,8.2
2023-04-15T05:30:27.504Z,8.2
2023-04-15T05:31:37.401Z,8.1
2023-04-15T05:32:44.484Z,8.1
2023-04-15T05:33:51.518Z,8.2
2023-04-15T05:34:58.507Z,8.2
2023-04-15T05:36:05.450Z,8.2
2023-04-15T05:37:12.473Z,8.2
2023-04-15T05:38:19.482Z,8.2
2023-04-15T05:39:26.567Z,8.3
2023-04-15T05:40:36.148Z,8.3
2023-04-15T05:41:43.307Z,8.1
2023-04-15T05:42:53.138Z,8
2023-04-15T05:44:00.169Z,8.1
2023-04-15T05:45:11.041Z,8.1
2023-04-15T05:46:18.085Z,8.3
2023-04-15T05:47:25.059Z,8.3
2023-04-15T05:48:31.907Z,8.3
2023-04-15T05:49:38.982Z,8.3
2023-04-15T05:50:48.487Z,8.4
2023-04-15T05:51:57.267Z,8.4
2023-04-15T05:53:04.217Z,8.5
2023-04-15T05:54:11.195Z,8.7
2023-04-15T05:55:18.145Z,8.7
2023-04-15T05:56:25.174Z,8.6
2023-04-15T05:57:32.268Z,8.8
2023-04-15T05:58:39.255Z,8.9
2023-04-15T05:59:46.202Z,8.8
2023-04-15T06:00:53.162Z,9
2023-04-15T06:02:00.163Z,9
2023-04-15T06:03:07.129Z,9
2023-04-15T06:04:14.131Z,9
2023-04-15T06:05:21.078Z,9.2
2023-04-15T06:06:27.980Z,9.3
2023-04-15T06:07:34.986Z,9.4
2023-04-15T06:08:44.668Z,9.5
2023-04-15T06:09:52.348Z,9.6
2023-04-15T06:10:59.454Z,9.7
2023-04-15T06:12:06.679Z,9.8
2023-04-15T06:13:13.675Z,9.9
2023-04-15T06:14:20.691Z,10
2023-04-15T06:15:28.551Z,10
2023-04-15T06:16:35.759Z,10
2023-04-15T06:17:42.862Z,10.1
2023-04-15T06:18:52.613Z,10.2
2023-04-15T06:19:59.630Z,10.4
2023-04-15T06:21:06.735Z,10.5
2023-04-15T06:22:13.766Z,10.6
2023-04-15T06:23:26.309Z,10.6
2023-04-15T06:24:31.810Z,10.6
2023-04-15T06:25:41.590Z,10.8
2023-04-15T06:26:48.647Z,10.7
2023-04-15T06:27:55.683Z,10.8
2023-04-15T06:29:02.929Z,10.6
2023-04-15T06:30:12.511Z,10.3
2023-04-15T06:31:19.513Z,10.1
2023-04-15T06:32:27.721Z,10.3
2023-04-15T06:33:35.036Z,10.7
2023-04-15T06:34:43.642Z,11
2023-04-15T06:35:50.805Z,11.2
2023-04-15T06:36:57.832Z,11.1
2023-04-15T06:38:05.084Z,11.3
2023-04-15T06:39:12.317Z,11.3
2023-04-15T06:40:19.265Z,11.4
2023-04-15T06:41:26.344Z,11.6
2023-04-15T06:42:33.447Z,11.7
2023-04-15T06:43:40.454Z,11.8
2023-04-15T06:44:47.427Z,11.9
2023-04-15T06:45:54.341Z,11.9
2023-04-15T06:47:01.258Z,11.8
2023-04-15T06:48:08.123Z,11.8
2023-04-15T06:49:14.856Z,11.8
2023-04-15T06:50:21.673Z,11.8
2023-04-15T06:51:28.463Z,11.8
2023-04-15T06:52:35.346Z,11.9
2023-04-15T06:53:42.417Z,11.9
2023-04-15T06:54:49.375Z,11.9
2023-04-15T06:55:56.242Z,11.9
2023-04-15T06:57:03.386Z,11.4
2023-04-15T06:58:10.163Z,11.3
2023-04-15T06:59:16.924Z,11.5
2023-04-15T07:00:23.896Z,11.7
2023-04-15T07:01:30.623Z,11.7
2023-04-15T07:02:37.624Z,11.4
2023-04-15T07:03:44.203Z,11.4
2023-04-15T07:04:51.081Z,11.7
2023-04-15T07:05:58.028Z,11.8
2023-04-15T07:07:04.853Z,11.6
2023-04-15T07:08:11.647Z,11.4
2023-04-15T07:09:18.496Z,11.8
2023-04-15T07:10:25.740Z,11.9
2023-04-15T07:11:32.315Z,12
2023-04-15T07:12:39.066Z,11.8
2023-04-15T07:13:45.826Z,12
2023-04-15T07:14:52.600Z,12.2
2023-04-15T07:15:59.381Z,12.4
2023-04-15T07:17:06.360Z,12.5
2023-04-15T07:18:13.011Z,12.7
2023-04-15T07:19:19.817Z,12.7
2023-04-15T07:20:26.614Z,12.5
2023-04-15T07:21:33.375Z,12.6
2023-04-15T07:22:40.226Z,12.5
2023-04-15T07:23:46.962Z,12.5
2023-04-15T07:24:53.818Z,12.2
2023-04-15T07:26:00.638Z,12.2
2023-04-15T07:27:07.490Z,12.1
2023-04-15T07:28:14.296Z,12.1
2023-04-15T07:29:21.082Z,12.2
2023-04-15T07:30:27.819Z,12.2
2023-04-15T07:31:34.679Z,12.3
2023-04-15T07:32:41.413Z,12.7
2023-04-15T07:33:48.298Z,12.7
2023-04-15T07:34:55.041Z,12.9
2023-04-15T07:36:01.847Z,13.1
2023-04-15T07:37:08.738Z,13.1
2023-04-15T07:38:15.587Z,13
2023-04-15T07:39:22.461Z,12.5
2023-04-15T07:40:29.294Z,12.9
2023-04-15T07:41:36.083Z,13.2
2023-04-15T07:42:42.847Z,13.3
2023-04-15T07:43:49.609Z,13.1
2023-04-15T07:44:56.482Z,12.9
2023-04-15T07:46:03.367Z,12.8
2023-04-15T07:47:10.246Z,12.9
2023-04-15T07:48:16.970Z,13.1
2023-04-15T07:49:23.726Z,13.4
2023-04-15T07:50:30.515Z,13.7
2023-04-15T07:51:37.303Z,13.6
2023-04-15T07:52:44.049Z,13.6
2023-04-15T07:53:50.853Z,13.7
2023-04-15T07:54:57.571Z,13.5
2023-04-15T07:56:04.444Z,13.5
2023-04-15T07:57:11.290Z,13.7
2023-04-15T07:58:18.024Z,14
2023-04-15T07:59:24.823Z,13.9
2023-04-15T08:00:31.631Z,14
2023-04-15T08:01:38.488Z,13.6
2023-04-15T08:02:45.330Z,13.6
2023-04-15T08:03:52.152Z,13.4
2023-04-15T08:04:58.881Z,13.4
2023-04-15T08:06:05.632Z,13.4
2023-04-15T08:07:12.474Z,13.4
2023-04-15T08:08:19.248Z,13.5
2023-04-15T08:09:26.006Z,13.2
2023-04-15T08:10:32.719Z,13.4
2023-04-15T08:11:39.527Z,13.9
2023-04-15T08:12:46.414Z,14.1
2023-04-15T08:13:53.220Z,13.9
2023-04-15T08:14:59.962Z,13.8
2023-04-15T08:16:06.907Z,13.6
2023-04-15T08:17:21.516Z,13.6
2023-04-15T08:18:28.279Z,13.4
2023-04-15T08:19:35.069Z,13.7
2023-04-15T08:20:41.820Z,14.1
2023-04-15T08:21:48.600Z,14.4
2023-04-15T08:22:55.284Z,14.4
2023-04-15T08:24:02.086Z,14.4
2023-04-15T08:25:09.032Z,14.7
2023-04-15T08:26:15.800Z,14.4
2023-04-15T08:27:22.650Z,14.5
2023-04-15T08:28:29.539Z,14.2
2023-04-15T08:29:36.295Z,14.3
2023-04-15T08:30:43.116Z,14.3
2023-04-15T08:31:49.950Z,14.5
2023-04-15T08:32:56.899Z,14.6
2023-04-15T08:34:03.692Z,14.3
2023-04-15T08:35:10.401Z,14.6
2023-04-15T08:36:17.163Z,14.6
2023-04-15T08:37:23.933Z,14.7
2023-04-15T08:38:30.759Z,14.4
2023-04-15T08:39:37.570Z,14.7
2023-04-15T08:40:52.818Z,14.6
2023-04-15T08:41:59.699Z,14.9
2023-04-15T08:43:06.554Z,14.9
2023-04-15T08:44:13.363Z,14.9
2023-04-15T08:45:20.143Z,14.9
2023-04-15T08:46:27.017Z,15.1
2023-04-15T08:47:36.925Z,15.3
2023-04-15T08:48:43.721Z,15.3
2023-04-15T08:49:50.594Z,15.2
2023-04-15T08:50:57.540Z,15.1
2023-04-15T08:52:04.436Z,15.4
2023-04-15T08:53:11.199Z,15.2
2023-04-15T08:54:17.985Z,15.4
2023-04-15T08:55:35.058Z,15.2
2023-04-15T08:56:46.869Z,15.5
2023-04-15T08:57:53.646Z,15.4
2023-04-15T08:59:00.659Z,15.4
2023-04-15T09:00:07.294Z,15.5
2023-04-15T09:01:14.526Z,15.7
2023-04-15T09:02:21.434Z,15.9
2023-04-15T09:03:28.153Z,16.1
2023-04-15T09:04:34.855Z,16.1
2023-04-15T09:05:41.674Z,16.1
2023-04-15T09:06:48.482Z,16
2023-04-15T09:07:55.395Z,16
2023-04-15T09:09:02.351Z,15.6
2023-04-15T09:10:08.980Z,15.7
2023-04-15T09:11:15.746Z,16
2023-04-15T09:12:22.571Z,15.9
2023-04-15T09:13:29.456Z,15.7
2023-04-15T09:14:36.209Z,15.9
2023-04-15T09:15:43.047Z,15.8
2023-04-15T09:16:50.472Z,16
2023-04-15T09:18:02.769Z,16
2023-04-15T09:19:09.406Z,16
2023-04-15T09:20:16.274Z,15.9
2023-04-15T09:21:23.153Z,15.9
2023-04-15T09:22:29.885Z,15.9
2023-04-15T09:23:36.683Z,16.1
2023-04-15T09:24:43.482Z,16.2
2023-04-15T09:25:50.316Z,16.1
2023-04-15T09:26:57.127Z,16.3
2023-04-15T09:28:03.888Z,16.3
2023-04-15T09:29:10.708Z,16.4
2023-04-15T09:30:17.514Z,16.5
2023-04-15T09:31:24.314Z,16.5
2023-04-15T09:32:34.161Z,15.9
2023-04-15T09:33:41.026Z,15.5
2023-04-15T09:34:52.859Z,15.4
2023-04-15T09:35:59.737Z,15.7
2023-04-15T09:37:07.658Z,16
2023-04-15T09:38:13.318Z,16.1
2023-04-15T09:39:20.119Z,16.2
2023-04-15T09:40:26.998Z,16.5
2023-04-15T09:41:33.763Z,16.6
2023-04-15T09:42:40.526Z,16.3
2023-04-15T09:43:57.438Z,16.2
2023-04-15T09:45:04.229Z,16.4
2023-04-15T09:46:11.119Z,16.7
2023-04-15T09:47:17.995Z,16.6
2023-04-15T09:48:29.827Z,16.5
2023-04-15T09:49:36.617Z,16.3
2023-04-15T09:50:43.350Z,16.2
2023-04-15T09:52:01.610Z,16
2023-04-15T09:52:56.971Z,15.8
2023-04-15T09:54:03.799Z,15.7
2023-04-15T09:55:10.690Z,15.8
2023-04-15T09:56:17.540Z,15.7
2023-04-15T09:57:24.304Z,15.5
2023-04-15T09:58:36.151Z,15.6
2023-04-15T09:59:42.971Z,15.5
2023-04-15T10:00:49.913Z,15.3
2023-04-15T10:01:56.739Z,15.3
2023-04-15T10:03:03.623Z,15.2
2023-04-15T10:04:10.302Z,15
2023-04-15T10:05:17.032Z,15
2023-04-15T10:06:23.865Z,15
2023-04-15T10:07:30.595Z,14.8
2023-04-15T10:08:37.400Z,14.8
2023-04-15T10:09:44.129Z,14.8
2023-04-15T10:10:53.466Z,15
2023-04-15T10:12:00.378Z,15.1
2023-04-15T10:13:07.348Z,15.1
2023-04-15T10:14:14.106Z,15.4
2023-04-15T10:15:20.836Z,15.4
2023-04-15T10:16:27.696Z,15.4
2023-04-15T10:17:34.336Z,15.7
2023-04-15T10:18:41.174Z,15.8
2023-04-15T10:19:47.989Z,15.9
2023-04-15T10:20:54.769Z,15.8
2023-04-15T10:22:01.567Z,15.7
2023-04-15T10:23:09.981Z,15.3
2023-04-15T10:24:15.122Z,15.4
2023-04-15T10:25:21.828Z,15.6
2023-04-15T10:26:28.637Z,15.6
2023-04-15T10:27:35.377Z,15.6
2023-04-15T10:28:42.172Z,15.5
2023-04-15T10:29:49.022Z,15.4
2023-04-15T10:30:55.820Z,15.3
2023-04-15T10:32:02.615Z,15.3
2023-04-15T10:33:09.431Z,15
2023-04-15T10:34:16.213Z,15
2023-04-15T10:35:23.068Z,15.2
2023-04-15T10:36:29.852Z,15.5
2023-04-15T10:37:36.625Z,15.7
2023-04-15T10:38:43.455Z,15.6
2023-04-15T10:39:50.298Z,15.6
2023-04-15T10:40:57.057Z,15.8
2023-04-15T10:42:13.987Z,15.9
2023-04-15T10:43:23.785Z,15.9
2023-04-15T10:44:30.570Z,15.6
2023-04-15T10:45:37.418Z,15.6
2023-04-15T10:46:44.376Z,15.7
2023-04-15T10:47:51.181Z,16.1
2023-04-15T10:48:57.901Z,16.1
2023-04-15T10:50:04.668Z,16
2023-04-15T10:51:11.648Z,16.5
2023-04-15T10:52:18.443Z,16.8
2023-04-15T10:53:27.873Z,16.7
2023-04-15T10:54:34.753Z,16.8
2023-04-15T10:55:41.549Z,16.9
2023-04-15T10:56:48.256Z,17.1
2023-04-15T10:58:03.028Z,17.1
2023-04-15T10:59:09.798Z,16.6
2023-04-15T11:00:16.552Z,16.1
2023-04-15T11:01:23.452Z,16.1
2023-04-15T11:02:40.437Z,16.3
2023-04-15T11:03:47.162Z,16.2
2023-04-15T11:04:53.927Z,16.2
2023-04-15T11:06:03.491Z,16.2
2023-04-15T11:07:10.359Z,16.1
2023-04-15T11:08:17.108Z,15.9
2023-04-15T11:09:23.835Z,15.9
2023-04-15T11:10:35.653Z,16
2023-04-15T11:11:42.742Z,16.1
2023-04-15T11:12:59.452Z,15.9
2023-04-15T11:14:08.817Z,15.9
2023-04-15T11:15:18.593Z,15.6
2023-04-15T11:16:33.118Z,15.5
2023-04-15T11:17:46.475Z,15.7
2023-04-15T11:18:51.713Z,15.9
2023-04-15T11:19:58.523Z,15.9
2023-04-15T11:21:05.501Z,16
2023-04-15T11:22:12.216Z,16
2023-04-15T11:23:19.010Z,15.9
2023-04-15T11:24:35.933Z,15.8
2023-04-15T11:25:50.612Z,15.6
2023-04-15T11:27:00.116Z,15.8
2023-04-15T11:28:06.883Z,15.7
2023-04-15T11:29:13.760Z,15.8
2023-04-15T11:30:20.556Z,15.9
2023-04-15T11:31:30.461Z,15.8
2023-04-15T11:32:37.262Z,15.6
2023-04-15T11:33:46.789Z,15.8
2023-04-15T11:34:58.676Z,15.8
2023-04-15T11:36:05.455Z,15.8
2023-04-15T11:37:12.321Z,15.8
2023-04-15T11:38:19.052Z,15.9
2023-04-15T11:39:27.113Z,15.8
2023-04-15T11:40:33.954Z,15.9
2023-04-15T11:41:40.740Z,15.9
2023-04-15T11:42:50.092Z,15.9
2023-04-15T11:44:04.506Z,16
2023-04-15T11:45:11.275Z,16.1
2023-04-15T11:46:18.296Z,16.1
2023-04-15T11:47:25.198Z,16.1
2023-04-15T11:48:32.071Z,16.2
2023-04-15T11:49:38.851Z,16.1
2023-04-15T11:50:45.809Z,16.1
2023-04-15T11:51:57.681Z,15.8
2023-04-15T11:53:06.316Z,15.7
2023-04-15T11:54:11.254Z,15.7
2023-04-15T11:55:18.052Z,15.6
2023-04-15T11:56:24.822Z,15.5
2023-04-15T11:57:31.664Z,15.8
2023-04-15T11:58:38.540Z,16.1
2023-04-15T11:59:46.120Z,16.2
2023-04-15T12:00:52.176Z,16.2
2023-04-15T12:01:58.991Z,16.4
2023-04-15T12:03:05.913Z,16
2023-04-15T12:04:23.287Z,15.9
2023-04-15T12:05:27.305Z,16
2023-04-15T12:06:34.082Z,16.1
2023-04-15T12:07:40.966Z,16.3
2023-04-15T12:08:58.000Z,16.3
2023-04-15T12:10:05.081Z,16.1
2023-04-15T12:11:12.084Z,16.5
2023-04-15T12:12:18.919Z,16.6
2023-04-15T12:13:25.682Z,16.6
2023-04-15T12:14:32.581Z,16.6
2023-04-15T12:15:39.404Z,16.7
2023-04-15T12:16:49.338Z,16.7
2023-04-15T12:17:53.049Z,16.7
2023-04-15T12:18:59.767Z,16.9
2023-04-15T12:20:14.406Z,16.8
2023-04-15T12:21:24.063Z,16.7
2023-04-15T12:22:30.977Z,16.8
2023-04-15T12:23:37.827Z,17
2023-04-15T12:24:52.535Z,17.1
2023-04-15T12:25:59.513Z,17.2
2023-04-15T12:27:06.286Z,17.4
2023-04-15T12:28:13.042Z,17.5
2023-04-15T12:29:19.830Z,17.4
2023-04-15T12:30:29.502Z,17.2
2023-04-15T12:31:36.279Z,16.9
2023-04-15T12:32:53.215Z,16.9
2023-04-15T12:33:59.973Z,17
2023-04-15T12:35:06.759Z,16.9
2023-04-15T12:36:13.598Z,16.9
2023-04-15T12:37:20.403Z,16.7
2023-04-15T12:38:27.172Z,16.7
2023-04-15T12:39:33.956Z,16.7
2023-04-15T12:40:43.422Z,16.7
2023-04-15T12:41:50.193Z,16.7
2023-04-15T12:42:56.975Z,16.6
2023-04-15T12:44:04.046Z,16.5
2023-04-15T12:45:10.731Z,16.5
2023-04-15T12:46:17.665Z,16.4
2023-04-15T12:47:24.477Z,16.4
2023-04-15T12:48:31.259Z,16.5
2023-04-15T12:49:38.075Z,16.7
2023-04-15T12:50:44.869Z,16.7
2023-04-15T12:51:51.655Z,16.6
2023-04-15T12:52:58.388Z,16.5
2023-04-15T12:54:05.315Z,16.6
2023-04-15T12:55:11.977Z,16.5
2023-04-15T12:56:18.801Z,16.4
2023-04-15T12:57:25.579Z,16.6
2023-04-15T12:58:32.368Z,16.7
2023-04-15T12:59:39.272Z,16.7
2023-04-15T13:00:46.039Z,16.8
2023-04-15T13:01:53.014Z,16.9
2023-04-15T13:02:59.697Z,16.9
2023-04-15T13:04:06.654Z,17
2023-04-15T13:05:13.487Z,17.2
2023-04-15T13:06:20.254Z,17.2
2023-04-15T13:07:27.000Z,17
2023-04-15T13:08:33.805Z,16.8
2023-04-15T13:09:40.612Z,16.8
2023-04-15T13:10:47.441Z,16.9
2023-04-15T13:11:54.227Z,17.1
2023-04-15T13:13:01.019Z,17.2
2023-04-15T13:14:07.794Z,17.4
2023-04-15T13:15:17.203Z,16.9
2023-04-15T13:16:24.087Z,16.4
2023-04-15T13:17:30.946Z,16.6
2023-04-15T13:18:37.631Z,16.9
2023-04-15T13:19:44.474Z,17
2023-04-15T13:20:51.244Z,17.2
2023-04-15T13:21:58.072Z,17.3
2023-04-15T13:23:04.951Z,17.3
2023-04-15T13:24:11.755Z,17.4
2023-04-15T13:25:18.529Z,17.6
2023-04-15T13:26:25.347Z,17.5
2023-04-15T13:27:32.119Z,17.6
2023-04-15T13:28:38.963Z,17.6
2023-04-15T13:29:45.712Z,17.7
2023-04-15T13:30:52.507Z,17.8
2023-04-15T13:31:59.360Z,17.8
2023-04-15T13:33:06.115Z,17.8
2023-04-15T13:34:12.923Z,17.7
2023-04-15T13:35:19.766Z,17.7
2023-04-15T13:36:26.497Z,17.7
2023-04-15T13:37:33.242Z,17.5
2023-04-15T13:38:40.044Z,17.6
2023-04-15T13:39:46.854Z,17.6
2023-04-15T13:40:53.653Z,17.4
2023-04-15T13:42:00.436Z,17.4
2023-04-15T13:43:07.323Z,17.5
2023-04-15T13:44:14.111Z,17.6
2023-04-15T13:45:20.975Z,17.7
2023-04-15T13:46:27.804Z,17
2023-04-15T13:47:34.664Z,17.2
2023-04-15T13:48:41.510Z,17.1
2023-04-15T13:49:48.267Z,17
2023-04-15T13:50:55.129Z,17.1
2023-04-15T13:52:01.905Z,17.2
2023-04-15T13:53:08.780Z,17.3
2023-04-15T13:54:15.584Z,17.4
2023-04-15T13:55:23.827Z,17.4
2023-04-15T13:56:29.182Z,17.5
2023-04-15T13:57:35.931Z,17.4
2023-04-15T13:58:42.782Z,17.3
2023-04-15T13:59:49.535Z,17.3
2023-04-15T14:00:56.504Z,17.3
2023-04-15T14:02:03.417Z,17.2
2023-04-15T14:03:10.168Z,17.1
2023-04-15T14:04:17.036Z,17.1
2023-04-15T14:05:23.700Z,17.1
2023-04-15T14:06:30.499Z,17.1
2023-04-15T14:07:37.484Z,17.1
2023-04-15T14:08:44.244Z,17.1
2023-04-15T14:09:51.072Z,17
2023-04-15T14:10:57.924Z,17
2023-04-15T14:12:04.703Z,17
2023-04-15T14:13:11.558Z,17
2023-04-15T14:14:18.345Z,17
2023-04-15T14:15:25.169Z,16.8
2023-04-15T14:16:32.527Z,16.8
2023-04-15T14:17:39.319Z,16.8
2023-04-15T14:18:46.148Z,16.7
2023-04-15T14:19:53.007Z,16.6
2023-04-15T14:20:59.789Z,16.7
2023-04-15T14:22:06.593Z,16.8
2023-04-15T14:23:13.376Z,16.8
2023-04-15T14:24:20.167Z,16.9
2023-04-15T14:25:33.530Z,17
2023-04-15T14:26:33.839Z,16.8
2023-04-15T14:27:40.648Z,16.9
2023-04-15T14:28:47.412Z,17
2023-04-15T14:29:54.335Z,17.1
2023-04-15T14:31:01.223Z,16.9
2023-04-15T14:32:11.754Z,16.9
2023-04-15T14:33:14.838Z,16.9
2023-04-15T14:34:21.666Z,17
2023-04-15T14:35:28.475Z,16.9
2023-04-15T14:36:35.264Z,16.9
2023-04-15T14:37:41.986Z,16.8
2023-04-15T14:38:48.833Z,16.9
2023-04-15T14:39:55.550Z,16.9
2023-04-15T14:41:02.457Z,16.9
2023-04-15T14:42:09.322Z,16.6
2023-04-15T14:43:16.083Z,16.5
2023-04-15T14:44:22.854Z,16.6
2023-04-15T14:45:29.638Z,16.5
2023-04-15T14:46:36.461Z,16.6
2023-04-15T14:47:43.363Z,16.7
2023-04-15T14:48:50.149Z,16.5
2023-04-15T14:49:56.953Z,16.4
2023-04-15T14:51:03.744Z,16
2023-04-15T14:52:10.514Z,16
2023-04-15T14:53:17.403Z,16
2023-04-15T14:54:24.212Z,15.8
2023-04-15T14:55:30.985Z,15.6
2023-04-15T14:56:37.792Z,15.5
2023-04-15T14:57:44.526Z,15.5
2023-04-15T14:58:51.286Z,15.4
2023-04-15T14:59:58.054Z,15.3
2023-04-15T15:01:04.914Z,15.1
2023-04-15T15:02:14.639Z,15
2023-04-15T15:03:18.530Z,15.1
2023-04-15T15:04:25.449Z,15.2
2023-04-15T15:05:32.294Z,15.1
2023-04-15T15:06:39.049Z,15.2
2023-04-15T15:07:45.841Z,15
2023-04-15T15:08:52.704Z,14.8
2023-04-15T15:09:59.554Z,14.7
2023-04-15T15:11:06.426Z,14.6
2023-04-15T15:12:13.243Z,14.6
2023-04-15T15:13:20.068Z,14.6
2023-04-15T15:14:26.775Z,14.7
2023-04-15T15:15:33.649Z,14.8
2023-04-15T15:16:40.440Z,14.8
2023-04-15T15:17:47.268Z,14.8